Time;durP1;ratioP1;P1;durP2;ratioP2;P2;SDS_P1;SDS_P2;PMS_P1;PMS_P2;Temp;Humidity;BMP_temperature;BMP_pressure;BME280_temperature;BME280_humidity;BME280_pressure;Samples;Min_cycle;Max_cycle;Signal;HPM_P1;HPM_P2
2023/11/28 00:05:41;;;;;;;36.50;15.10;;;;;;;1.31;86.03;98989.83;683047;1263;139531;-79
2023/11/28 00:21:18;;;;;;;39.50;14.70;;;;;;;1.36;86.00;98980.16;683093;1260;138712;-79
2023/11/28 00:36:55;;;;;;;;;;;;;;;1.40;85.87;98970.77;683004;1260;140196;-79
2023/11/28 00:52:32;;;;;;;37.30;13.80;;;;;;;1.48;84.98;98965.33;682903;1260;124807;-79
2023/11/28 01:08:09;;;;;;;40.60;15.80;;;;;;;1.35;84.95;98960.58;682780;1260;138805;-79
2023/11/28 01:23:46;;;;;;;38.50;13.50;;;;;;;1.23;85.50;98955.24;683116;1258;139811;-79
2023/11/28 01:39:24;;;;;;;47.70;17.20;;;;;;;1.15;84.49;98944.38;683081;1258;139878;-79
2023/11/28 01:55:01;;;;;;;38.80;13.10;;;;;;;1.03;84.87;98940.11;682717;1257;138967;-79
2023/11/28 02:10:39;;;;;;;42.10;14.40;;;;;;;0.85;84.23;98922.52;682855;1263;138911;-79
2023/11/28 02:26:32;;;;;;;36.90;13.30;;;;;;;0.57;84.86;98913.26;682971;1261;138960;-79
2023/11/28 02:42:09;;;;;;;40.40;12.40;;;;;;;0.52;84.71;98902.59;683116;1257;138981;-79
2023/11/28 02:57:46;;;;;;;34.40;12.60;;;;;;;0.49;83.84;98879.90;683087;1260;138760;-78
2023/11/28 03:13:23;;;;;;;35.00;12.10;;;;;;;0.55;83.99;98869.06;682860;1260;139248;-78
2023/11/28 03:29:00;;;;;;;41.60;14.90;;;;;;;0.34;83.64;98845.98;682978;1262;138678;-79
2023/11/28 03:44:37;;;;;;;51.00;16.60;;;;;;;0.43;83.70;98830.80;682896;1256;139100;-78
2023/11/28 04:00:14;;;;;;;60.00;21.20;;;;;;;0.54;83.86;98818.68;683032;1259;138681;-78
2023/11/28 04:15:51;;;;;;;61.10;17.90;;;;;;;0.40;83.37;98809.16;682923;1258;139441;-79
2023/11/28 04:31:28;;;;;;;46.10;16.30;;;;;;;0.37;83.92;98797.80;683123;1260;139530;-78
2023/11/28 04:47:06;;;;;;;57.80;19.50;;;;;;;0.53;83.21;98790.18;683160;1257;139543;-78
2023/11/28 05:02:43;;;;;;;53.20;19.00;;;;;;;0.36;82.52;98783.14;683012;1260;140172;-78
2023/11/28 05:18:20;;;;;;;48.20;15.60;;;;;;;0.04;82.06;98773.13;675299;1260;10137874;-80
2023/11/28 05:33:57;;;;;;;93.80;42.70;;;;;;;-0.16;82.19;98762.59;682864;1256;138985;-79
2023/11/28 05:49:27;;;;;;;61.40;19.90;;;;;;;-0.22;82.22;98758.54;682791;1262;139008;-79
2023/11/28 06:04:52;;;;;;;74.60;27.10;;;;;;;-0.15;82.78;98750.34;683061;1262;138839;-79
2023/11/28 06:20:29;;;;;;;92.60;27.80;;;;;;;-0.32;82.19;98750.10;682715;1262;139057;-79
2023/11/28 06:36:07;;;;;;;54.40;19.90;;;;;;;-0.59;82.84;98756.70;683057;1260;139034;-80
2023/11/28 06:51:43;;;;;;;41.40;15.90;;;;;;;-0.44;83.26;98747.08;682895;1262;139134;-79
2023/11/28 07:07:21;;;;;;;57.40;17.70;;;;;;;-0.25;83.58;98743.98;683049;1260;139416;-79
2023/11/28 07:22:57;;;;;;;53.50;18.10;;;;;;;0.11;83.42;98750.95;682854;1265;139729;-79
2023/11/28 07:38:34;;;;;;;60.10;23.90;;;;;;;0.01;82.45;98747.36;683021;1258;139533;-79
2023/11/28 07:54:12;;;;;;;101.40;32.00;;;;;;;-0.00;82.22;98762.37;683022;1259;139838;-78
2023/11/28 08:09:49;;;;;;;78.30;27.70;;;;;;;0.34;82.34;98772.41;682965;1259;139162;-79
2023/11/28 08:25:26;;;;;;;65.90;24.90;;;;;;;0.15;82.22;98795.20;682785;1258;140283;-79
2023/11/28 08:41:03;;;;;;;52.50;17.50;;;;;;;-0.01;82.21;98799.41;682923;1260;138737;-79
2023/11/28 08:56:43;;;;;;;108.50;52.10;;;;;;;0.11;82.38;98786.73;682988;1260;139475;-79
2023/11/28 09:12:24;;;;;;;110.70;53.30;;;;;;;-0.25;82.49;98788.77;682966;1260;139515;-79
2023/11/28 09:28:02;;;;;;;49.10;16.80;;;;;;;-0.26;83.37;98797.31;682998;1259;139374;-79
2023/11/28 09:43:39;;;;;;;62.70;21.50;;;;;;;0.19;83.00;98789.98;682928;1260;140582;-79
2023/11/28 09:59:18;;;;;;;58.40;25.10;;;;;;;0.75;83.64;98784.52;682996;1262;138793;-79
2023/11/28 10:14:56;;;;;;;93.60;39.50;;;;;;;0.82;82.74;98758.52;682769;1261;139830;-79
2023/11/28 10:30:33;;;;;;;50.50;19.70;;;;;;;1.08;83.27;98766.52;682985;1261;138677;-80
2023/11/28 10:46:11;;;;;;;52.70;20.10;;;;;;;1.15;82.30;98771.30;683205;1260;139020;-79
2023/11/28 11:01:49;;;;;;;76.80;29.20;;;;;;;1.40;81.77;98750.52;682829;1272;139029;-80
2023/11/28 11:17:49;;;;;;;92.70;31.80;;;;;;;1.74;81.42;98745.09;683213;1260;139731;-80
2023/11/28 11:33:27;;;;;;;80.30;25.60;;;;;;;1.48;80.49;98738.59;682965;1257;139362;-79
2023/11/28 11:49:03;;;;;;;283.20;65.70;;;;;;;1.34;80.85;98734.13;683070;1260;139107;-81
2023/11/28 12:04:46;;;;;;;90.00;30.20;;;;;;;1.41;80.62;98740.48;682932;1262;140103;-78
2023/11/28 12:20:23;;;;;;;171.20;45.10;;;;;;;1.74;81.22;98737.52;682915;1261;139282;-80
2023/11/28 12:36:12;;;;;;;115.40;42.10;;;;;;;1.78;80.78;98731.53;683026;1261;138800;-78
2023/11/28 12:51:51;;;;;;;170.60;52.60;;;;;;;1.87;81.18;98728.58;683133;1260;140199;-79
2023/11/28 13:07:28;;;;;;;151.20;48.30;;;;;;;1.76;80.72;98743.58;682921;1260;138968;-79
2023/11/28 13:23:16;;;;;;;219.00;85.20;;;;;;;1.33;80.14;98743.84;683258;1263;139186;-78
2023/11/28 13:38:54;;;;;;;350.50;124.40;;;;;;;1.30;80.51;98756.80;683136;1260;139709;-79
2023/11/28 13:54:32;;;;;;;92.40;30.70;;;;;;;1.10;80.44;98758.42;682833;1263;139743;-80
2023/11/28 14:10:11;;;;;;;117.90;42.30;;;;;;;0.87;80.70;98772.51;683056;1261;139638;-79
2023/11/28 14:25:48;;;;;;;164.50;57.90;;;;;;;0.86;80.92;98782.41;682982;1261;139138;-79
2023/11/28 14:41:18;;;;;;;158.40;55.00;;;;;;;0.94;81.53;98801.77;683350;1262;139320;-79
2023/11/28 14:56:42;;;;;;;134.80;40.30;;;;;;;1.11;81.75;98807.90;682853;1262;139114;-78
2023/11/28 15:12:19;;;;;;;160.70;51.00;;;;;;;1.37;81.94;98819.34;683072;1262;139126;-79
2023/11/28 15:27:56;;;;;;;220.10;58.20;;;;;;;1.34;81.84;98829.85;683373;1260;138868;-80
2023/11/28 15:43:33;;;;;;;217.60;69.40;;;;;;;1.29;81.21;98841.83;683494;1260;139081;-79
2023/11/28 15:59:11;;;;;;;;;;;;;;;1.19;80.91;98857.45;683829;1259;138975;-80
2023/11/28 16:14:49;;;;;;;125.80;42.90;;;;;;;1.07;80.75;98877.42;683822;1257;125312;-79
2023/11/28 16:30:26;;;;;;;60.20;20.60;;;;;;;0.89;80.73;98881.66;683969;1260;139064;-78
2023/11/28 16:46:04;;;;;;;185.50;49.30;;;;;;;0.66;80.38;98891.17;683951;1263;140406;-79
2023/11/28 17:01:41;;;;;;;179.70;57.90;;;;;;;0.64;80.99;98904.55;683648;1260;138883;-79
2023/11/28 17:17:18;;;;;;;119.20;43.90;;;;;;;0.69;80.96;98914.55;676641;1263;10137096;-78
2023/11/28 17:32:57;;;;;;;167.70;69.20;;;;;;;0.78;81.33;98926.09;684416;1258;22132;-78
2023/11/28 17:48:49;;;;;;;141.50;54.80;;;;;;;0.79;81.49;98933.45;684787;1257;22961;-79
2023/11/28 18:04:36;;;;;;;124.70;49.00;;;;;;;0.79;81.19;98958.72;684227;1260;22188;-79
2023/11/28 18:20:20;;;;;;;149.50;49.70;;;;;;;0.72;80.76;98988.52;684044;1257;22455;-79
2023/11/28 18:35:57;;;;;;;123.40;46.00;;;;;;;0.54;80.65;99004.86;683397;1260;139512;-78
2023/11/28 18:51:37;;;;;;;102.70;39.00;;;;;;;0.32;80.43;99026.79;683134;1261;22232;-78
2023/11/28 19:07:17;;;;;;;89.60;30.80;;;;;;;0.19;80.52;99040.48;683196;1260;22173;-78
2023/11/28 19:22:56;;;;;;;171.20;50.30;;;;;;;0.12;80.63;99057.08;683467;1260;22398;-80
2023/11/28 19:38:33;;;;;;;79.20;24.10;;;;;;;-0.02;80.50;99069.64;683191;1258;22182;-79
2023/11/28 19:54:10;;;;;;;104.80;32.40;;;;;;;-0.08;81.28;99071.60;683105;1262;23442;-79
2023/11/28 20:10:07;;;;;;;106.60;31.50;;;;;;;-0.06;80.29;99084.56;683405;1260;140589;-79
2023/11/28 20:25:45;;;;;;;214.30;65.00;;;;;;;-0.29;80.32;99080.45;683136;1259;22474;-79
2023/11/28 20:41:41;;;;;;;116.60;34.00;;;;;;;-0.30;79.81;99080.38;682966;1259;138977;-79
2023/11/28 20:57:18;;;;;;;537.80;121.10;;;;;;;-0.63;79.85;99087.90;682952;1262;139751;-79
2023/11/28 21:12:55;;;;;;;145.00;44.20;;;;;;;-0.76;80.11;99092.64;682733;1258;139249;-79
2023/11/28 21:28:32;;;;;;;303.90;86.70;;;;;;;-1.05;80.22;99098.25;683178;1259;22170;-79
2023/11/28 21:44:09;;;;;;;189.70;61.60;;;;;;;-0.69;80.46;99124.48;682887;1263;22221;-78
2023/11/28 22:00:09;;;;;;;108.70;30.90;;;;;;;-0.49;80.62;99132.08;683115;1260;22166;-79
2023/11/28 22:15:45;;;;;;;87.90;28.00;;;;;;;-0.80;80.32;99144.70;683112;1263;22700;-78
2023/11/28 22:31:22;;;;;;;103.50;31.90;;;;;;;-1.08;80.65;99154.73;683181;1258;22236;-79
2023/11/28 22:46:59;;;;;;;77.00;26.00;;;;;;;-0.79;80.79;99162.46;683213;1262;22321;-80
2023/11/28 23:02:36;;;;;;;80.00;23.70;;;;;;;-0.92;80.22;99164.98;683419;1257;23358;-78
2023/11/28 23:18:14;;;;;;;207.50;69.20;;;;;;;-1.22;80.42;99172.87;683294;1260;138771;-78
2023/11/28 23:33:51;;;;;;;106.20;30.40;;;;;;;-1.12;80.76;99176.90;683218;1260;139444;-79
2023/11/28 23:49:28;;;;;;;72.50;22.30;;;;;;;-1.19;80.87;99167.68;683476;1264;22160;-79
